Houston, TX

3:06 AM CST on February 08, 2016 (GMT -0600)
Sabine Street - Buffalo Bayou Park | | Change Station
CLOSE
Current Station
Personal Weather Station
Location: Houston, TX
Elevation: 43 ft
Nearby Weather Stations
Active Advisory: Fire Weather Warning

Elev 43 ft 29.76 °N, 95.38 °W | Updated 30 seconds ago

Clear
Clear
52.3 °F
Feels Like 52.3 °F
N
0.0
Wind Variable Wind from NE
Gusts 0.0 mph

Today
High -- | Low -- °F
--% Chance of Precip.
Yesterday
High -- | Low -- °F
Precip. -- in
Pressure 30.15 in
Visibility 10.0 miles
Clouds Clear
Dew Point 45 °F
Humidity 76%
Rainfall 0.00 in
Snow Depth Not available.
7:07 AM 6:04 PM
Waning Crescent, 0% visible
METAR KMCJ 080835Z AUTO 29005KT 10SM CLR 12/05 A3015 RMK AO1
Pressure 30.15 in
Visibility 10.0 miles
Clouds Clear
Dew Point 45 °F
Humidity 76%
Rainfall 0.00 in
Snow Depth Not available.
7:07 AM 6:04 PM
Waning Crescent, 0% visible
METAR KMCJ 080835Z AUTO 29005KT 10SM CLR 12/05 A3015 RMK AO1

10-Day Weather Forecast

Almanac

Astronomy

Feb. 08, 2016 Rise Set
Actual Time
Civil Twilight
Nautical Twilight
Astronomical Twilight
Moon
Length of Visible Light
Length of Day
Tomorrow will be .
, % of the Moon is Illuminated

Today's Extremes

State Highs State Lows

Community

WunderPhotos

Upload Photos

1,891,412 photos uploaded!

WunderBlog® & News

Nearby

Air Quality

  Air Quality AQ Index Pollutant
Not available.

Snow Depth

Station Depth Elevation

Earthquake Activity

City Distance Mag. Time & Date
Minimum magnitude displayed is 2.5.

Coastal Water Temperatures

Place Temperature

Stations

Nearby Weather Stations

Station Location Temp. Windchill Dew Point Humidity Wind Precip. Elev Updated Type
                   

Watches & Warnings

Fire Weather Warning
Issued: 9:09 PM CST Feb. 7, 2016 – National Weather Service

... Red flag warning in effect from 7 am to 7 PM CST Monday for
strong gusty winds and very low humidity across southeast
Texas...

The National Weather Service in Houston/Galveston has issued a
red flag warning... which is in effect from 7 am to 7 PM CST
Monday. The Fire Weather Watch is no longer in effect.


* Affected counties... Houston... Trinity... Madison... Walker...
San Jacinto... Polk... Burleson... Brazos... Washington...
Grimes... Montgomery... Liberty... Colorado... Austin... Waller...
Harris... Chambers... Wharton... Fort Bend... Jackson...
Matagorda... Brazoria... Galveston.

* Wind... north to northwest winds 15 to 25 mph with frequent
gusts of 30 to 35 mph.

* Humidity... 14 to 21 percent.

* Impacts... dangerous wildfire burning conditions with the
potential for fire starts with very rapid expansion of the fire.

Precautionary/preparedness actions...



Precautionary/preparedness actions...

A red flag warning means that critical fire weather conditions
are either occurring now... or will shortly. A combination of
strong winds... low relative humidity... and warm temperatures will
create explosive fire growth potential.